Time;durP1;ratioP1;P1;durP2;ratioP2;P2;SDS_P1;SDS_P2;PMS_P1;PMS_P2;Temp;Humidity;BMP_temperature;BMP_pressure;BME280_temperature;BME280_humidity;BME280_pressure;Samples;Min_cycle;Max_cycle;Signal;HPM_P1;HPM_P2
2021/01/15 00:02:19;;;;;;;15.32;9.48;;;;;;;-0.50;84.28;102362.09;5038940;28;20498;-65
2021/01/15 00:04:45;;;;;;;15.60;9.85;;;;;;;-0.48;84.55;102367.38;5038923;28;20091;-65
2021/01/15 00:07:11;;;;;;;14.10;9.20;;;;;;;-0.46;83.68;102365.56;5038352;28;20054;-65
2021/01/15 00:09:37;;;;;;;16.88;8.82;;;;;;;-0.47;83.41;102359.41;5039878;28;20056;-65
2021/01/15 00:12:04;;;;;;;12.63;8.50;;;;;;;-0.51;83.64;102357.69;5038600;28;20048;-65
2021/01/15 00:14:30;;;;;;;15.60;9.82;;;;;;;-0.45;83.45;102356.72;5039110;28;20448;-65
2021/01/15 00:16:56;;;;;;;14.55;9.27;;;;;;;-0.50;83.57;102364.75;5037447;28;20049;-64
2021/01/15 00:19:22;;;;;;;13.50;8.60;;;;;;;-0.47;83.13;102374.38;5036253;28;20053;-65
2021/01/15 00:21:49;;;;;;;18.67;9.30;;;;;;;-0.44;82.54;102369.91;5037204;28;20053;-64
2021/01/15 00:24:16;;;;;;;14.02;8.55;;;;;;;-0.39;82.40;102373.34;5036709;28;20119;-65
2021/01/15 00:26:43;;;;;;;16.75;9.02;;;;;;;-0.35;82.27;102363.59;5040490;28;20053;-65
2021/01/15 00:29:10;;;;;;;12.63;8.98;;;;;;;-0.40;81.99;102366.31;5040164;28;20057;-65
2021/01/15 00:31:38;;;;;;;16.00;8.98;;;;;;;-0.41;82.50;102364.56;5038758;28;20052;-64
2021/01/15 00:34:05;;;;;;;13.85;8.25;;;;;;;-0.37;82.79;102362.72;5037272;28;20046;-65
2021/01/15 00:36:31;;;;;;;13.32;8.25;;;;;;;-0.31;82.56;102361.75;5039636;28;20053;-65
2021/01/15 00:38:59;;;;;;;17.35;8.45;;;;;;;-0.29;82.41;102368.75;5038125;28;20444;-65
2021/01/15 00:41:24;;;;;;;12.70;8.75;;;;;;;-0.27;82.89;102360.78;5039088;28;20071;-64
2021/01/15 00:43:50;;;;;;;18.10;8.70;;;;;;;-0.27;82.55;102361.66;5037561;28;20045;-64
2021/01/15 00:46:27;;;;;;;13.98;8.07;;;;;;;-0.28;82.62;102373.16;5037921;28;20052;-64
2021/01/15 00:48:53;;;;;;;13.38;8.25;;;;;;;-0.31;82.83;102370.56;5041952;28;20077;-64
2021/01/15 00:51:19;;;;;;;14.50;8.35;;;;;;;-0.29;82.64;102376.69;5040976;28;20075;-64
2021/01/15 00:53:45;;;;;;;14.95;8.00;;;;;;;-0.30;82.12;102377.59;5040251;28;20901;-64
2021/01/15 00:56:16;;;;;;;15.70;8.48;;;;;;;-0.26;82.14;102384.56;5040790;28;20056;-64
2021/01/15 00:58:42;;;;;;;15.80;8.52;;;;;;;-0.31;82.04;102382.91;5040627;28;20060;-65
2021/01/15 01:01:11;;;;;;;12.55;8.30;;;;;;;-0.24;82.02;102387.19;5039228;28;20053;-65
2021/01/15 01:03:37;;;;;;;15.48;8.25;;;;;;;-0.26;81.82;102389.88;5041047;28;20045;-64
2021/01/15 01:06:08;;;;;;;12.07;7.30;;;;;;;-0.21;81.66;102387.13;5039172;28;20087;-64
2021/01/15 01:08:34;;;;;;;11.57;7.70;;;;;;;-0.22;82.10;102390.66;5039370;28;20725;-64
2021/01/15 01:11:00;;;;;;;12.07;7.93;;;;;;;-0.24;82.27;102397.78;5042176;28;20560;-64
2021/01/15 01:13:27;;;;;;;12.27;7.85;;;;;;;-0.22;82.05;102401.25;5041380;28;20080;-65
2021/01/15 01:15:53;;;;;;;12.93;7.63;;;;;;;-0.25;82.56;102396.00;5040087;28;20384;-64
2021/01/15 01:18:19;;;;;;;14.73;7.55;;;;;;;-0.19;82.06;102401.22;5037686;28;20548;-64
2021/01/15 01:20:45;;;;;;;12.40;7.38;;;;;;;-0.16;82.01;102414.41;5041113;28;20061;-64
2021/01/15 01:23:11;;;;;;;12.45;7.80;;;;;;;-0.13;82.54;102416.09;5038107;28;20051;-64
2021/01/15 01:25:37;;;;;;;11.95;7.55;;;;;;;-0.17;82.58;102415.28;5039194;28;20072;-65
2021/01/15 01:28:03;;;;;;;16.75;9.05;;;;;;;-0.13;82.53;102421.38;5036010;28;20064;-65
2021/01/15 01:30:30;;;;;;;15.57;7.75;;;;;;;-0.20;83.21;102425.94;5039332;28;20103;-64
2021/01/15 01:32:57;;;;;;;13.50;8.38;;;;;;;-0.22;83.42;102427.72;5038278;28;20049;-65
2021/01/15 01:35:23;;;;;;;14.68;8.00;;;;;;;-0.19;83.43;102427.69;5040128;28;20049;-65
2021/01/15 01:37:49;;;;;;;10.73;7.57;;;;;;;-0.19;83.40;102433.84;5041364;28;20451;-65
2021/01/15 01:40:15;;;;;;;12.75;8.02;;;;;;;-0.16;83.40;102443.50;5040140;28;20057;-65
2021/01/15 01:42:41;;;;;;;13.07;7.43;;;;;;;-0.02;82.28;102445.88;5040156;28;20056;-65
2021/01/15 01:47:37;;;;;;;12.07;7.20;;;;;;;-0.13;83.36;102443.44;4957531;23;20526;-65
2021/01/15 01:50:04;;;;;;;12.13;6.80;;;;;;;-0.09;82.84;102445.13;5002555;28;20067;-64
2021/01/15 01:52:30;;;;;;;13.25;7.65;;;;;;;-0.09;82.93;102444.25;4997873;28;20065;-64
2021/01/15 01:54:57;;;;;;;14.93;8.75;;;;;;;-0.11;82.71;102456.66;5001046;28;20050;-65
2021/01/15 01:57:23;;;;;;;14.50;8.30;;;;;;;-0.08;82.91;102454.81;4998447;28;20385;-65
2021/01/15 01:59:50;;;;;;;17.17;8.30;;;;;;;-0.10;83.08;102458.41;5000110;28;20100;-64
2021/01/15 02:02:16;;;;;;;12.32;7.43;;;;;;;-0.06;83.25;102462.72;4999747;28;20058;-65
2021/01/15 02:04:42;;;;;;;14.80;8.00;;;;;;;-0.07;83.29;102453.06;5001746;28;20042;-65
2021/01/15 02:07:08;;;;;;;13.90;8.15;;;;;;;-0.08;83.71;102470.69;5000495;28;20059;-65
2021/01/15 02:09:54;;;;;;;12.40;7.53;;;;;;;-0.10;83.55;102471.63;5002184;28;20078;-65
2021/01/15 02:12:29;;;;;;;13.90;7.10;;;;;;;-0.12;82.97;102466.34;5000343;28;20061;-65
2021/01/15 02:15:03;;;;;;;14.30;8.18;;;;;;;-0.09;82.91;102465.41;5000497;28;20108;-65
2021/01/15 02:17:35;;;;;;;15.38;8.23;;;;;;;-0.12;83.65;102470.78;5000610;28;20867;-65
2021/01/15 02:20:21;;;;;;;12.70;7.75;;;;;;;-0.11;83.49;102469.88;5001295;28;20457;-65
2021/01/15 02:22:59;;;;;;;15.35;8.25;;;;;;;-0.10;83.04;102477.78;5000094;28;20065;-65
2021/01/15 02:25:58;;;;;;;12.63;7.40;;;;;;;-0.10;83.31;102469.84;4998489;28;20050;-64
2021/01/15 02:28:32;;;;;;;;;;;;;;;-0.14;83.44;102473.44;5000212;28;20046;-64
2021/01/15 02:31:12;;;;;;;13.68;7.90;;;;;;;-0.19;83.74;102473.53;5000998;28;20148;-65
2021/01/15 02:33:49;;;;;;;13.23;7.30;;;;;;;-0.11;83.57;102465.44;4998370;28;20053;-64
2021/01/15 02:38:59;;;;;;;12.00;7.38;;;;;;;-0.14;83.74;102484.03;5042103;22;20060;-64
2021/01/15 02:41:27;;;;;;;15.70;8.00;;;;;;;-0.02;83.58;102481.16;5041412;28;20065;-65
2021/01/15 02:43:56;;;;;;;11.15;7.35;;;;;;;0.06;83.25;102481.03;5039070;28;20854;-64
2021/01/15 02:46:47;;;;;;;12.98;7.40;;;;;;;0.07;83.34;102493.34;5042274;28;20053;-65
2021/01/15 02:49:15;;;;;;;12.32;7.78;;;;;;;0.03;83.24;102491.69;5039724;28;20193;-65
2021/01/15 02:51:41;;;;;;;11.00;7.88;;;;;;;0.03;83.33;102488.16;5041535;28;20064;-65
2021/01/15 02:54:08;;;;;;;13.35;8.63;;;;;;;-0.03;84.05;102495.31;5038210;28;20045;-65
2021/01/15 02:56:36;;;;;;;15.75;7.93;;;;;;;-0.11;84.23;102491.91;5042263;28;20053;-64
2021/01/15 02:59:02;;;;;;;13.93;8.85;;;;;;;-0.15;84.37;102492.88;5039331;28;20045;-65
2021/01/15 03:01:32;;;;;;;13.85;8.15;;;;;;;-0.10;84.40;102496.31;5038847;28;20049;-65
2021/01/15 03:04:01;;;;;;;;;;;;;;;-0.12;84.63;102490.16;5039294;28;20040;-65
2021/01/15 03:06:33;;;;;;;13.23;8.18;;;;;;;-0.18;84.33;102498.22;5039938;28;19921;-65
2021/01/15 03:09:01;;;;;;;13.52;8.63;;;;;;;-0.19;84.70;102501.78;5041664;28;20099;-65
2021/01/15 03:11:30;;;;;;;17.08;8.48;;;;;;;-0.12;84.53;102502.53;5039271;28;20037;-64
2021/01/15 03:13:58;;;;;;;13.27;8.43;;;;;;;-0.10;83.88;102501.59;5037767;28;20589;-64
2021/01/15 03:16:25;;;;;;;13.83;7.73;;;;;;;-0.07;83.88;102506.84;5039391;28;20083;-65
2021/01/15 03:18:53;;;;;;;13.27;8.02;;;;;;;-0.05;83.71;102510.31;5040550;28;20278;-65
2021/01/15 03:21:19;;;;;;;15.52;8.70;;;;;;;-0.06;83.68;102507.72;5041135;28;20068;-65
2021/01/15 03:23:46;;;;;;;13.60;8.00;;;;;;;-0.06;84.00;102503.31;5038424;28;20106;-65
2021/01/15 03:26:13;;;;;;;14.02;7.85;;;;;;;-0.03;83.72;102508.53;5040233;28;20048;-65
2021/01/15 03:28:40;;;;;;;13.45;8.05;;;;;;;-0.08;83.42;102509.53;5034376;28;20048;-64
2021/01/15 03:31:06;;;;;;;12.15;7.75;;;;;;;-0.11;83.84;102521.03;5036251;28;20115;-65
2021/01/15 03:33:32;;;;;;;12.75;7.82;;;;;;;-0.09;84.40;102519.25;5038657;28;20057;-64
2021/01/15 03:35:58;;;;;;;13.38;8.00;;;;;;;-0.06;84.12;102516.53;5040860;28;20067;-64
2021/01/15 03:39:07;;;;;;;14.20;8.95;;;;;;;-0.08;84.25;102513.03;5049633;22;20048;-64
2021/01/15 03:41:34;;;;;;;14.73;8.13;;;;;;;-0.05;83.95;102520.06;4978274;28;20050;-64
2021/01/15 03:44:00;;;;;;;13.95;7.93;;;;;;;-0.08;84.31;102523.63;4990262;28;20037;-64
2021/01/15 03:46:26;;;;;;;13.20;8.23;;;;;;;-0.15;84.65;102529.91;4999264;28;20073;-64
2021/01/15 03:48:51;;;;;;;13.90;7.85;;;;;;;-0.09;84.69;102516.59;4999003;28;20503;-65
2021/01/15 03:51:17;;;;;;;14.18;8.25;;;;;;;0.06;84.44;102525.16;4997877;28;20046;-67
2021/01/15 03:53:47;;;;;;;13.25;8.32;;;;;;;-0.04;84.31;102527.97;4998409;28;20060;-65
2021/01/15 03:56:15;;;;;;;;;;;;;;;-0.06;84.69;102540.38;5000339;28;20157;-65
2021/01/15 03:58:42;;;;;;;12.93;7.95;;;;;;;-0.09;84.88;102534.22;4998921;28;19925;-64
2021/01/15 04:01:08;;;;;;;14.73;8.80;;;;;;;-0.07;84.83;102535.97;4999660;28;20408;-65
2021/01/15 04:03:34;;;;;;;15.35;9.10;;;;;;;-0.01;84.86;102541.16;4998379;28;20053;-65
2021/01/15 04:06:00;;;;;;;15.80;9.43;;;;;;;-0.05;85.05;102539.44;4999517;28;20061;-65
2021/01/15 04:08:26;;;;;;;14.75;9.02;;;;;;;-0.02;85.10;102536.75;4998571;28;20069;-65
2021/01/15 04:10:52;;;;;;;16.02;8.98;;;;;;;-0.04;84.73;102543.84;4999792;28;20093;-65
2021/01/15 04:13:18;;;;;;;14.65;8.57;;;;;;;-0.04;85.19;102541.19;4997677;28;20046;-65
2021/01/15 04:15:45;;;;;;;17.08;9.63;;;;;;;-0.03;85.32;102535.03;4998152;28;20549;-65
2021/01/15 04:18:11;;;;;;;15.00;9.75;;;;;;;0.04;85.17;102538.41;4998517;28;20423;-65
2021/01/15 04:20:37;;;;;;;16.63;9.50;;;;;;;0.01;85.19;102537.59;4999407;28;20046;-65
2021/01/15 04:23:03;;;;;;;15.35;9.30;;;;;;;0.03;85.29;102538.44;5003367;28;20054;-65
2021/01/15 04:25:28;;;;;;;14.70;9.18;;;;;;;0.04;85.42;102545.50;5003280;28;20046;-65
2021/01/15 04:27:54;;;;;;;17.17;9.65;;;;;;;0.07;85.09;102545.44;5004257;28;20399;-65
2021/01/15 04:30:21;;;;;;;14.25;9.02;;;;;;;0.14;84.79;102553.25;5001817;28;20054;-65
2021/01/15 04:32:49;;;;;;;16.05;8.50;;;;;;;0.05;84.84;102555.19;5003410;28;20063;-65
2021/01/15 04:35:16;;;;;;;15.60;9.00;;;;;;;0.01;85.57;102554.34;5001410;28;20062;-65
2021/01/15 04:37:42;;;;;;;15.32;9.15;;;;;;;-0.05;85.67;102552.69;5003514;28;20893;-65
2021/01/15 04:40:09;;;;;;;15.65;10.38;;;;;;;-0.03;85.80;102560.59;5002998;28;20407;-65
2021/01/15 04:42:41;;;;;;;13.43;9.13;;;;;;;-0.02;85.85;102557.91;5003476;28;20112;-64
2021/01/15 04:45:08;;;;;;;17.70;9.18;;;;;;;0.04;85.54;102556.94;5002226;28;20058;-65
2021/01/15 04:47:34;;;;;;;20.15;10.88;;;;;;;0.01;85.40;102557.00;5002666;28;20062;-65
2021/01/15 04:50:02;;;;;;;17.75;9.85;;;;;;;0.01;85.73;102564.09;5002773;28;20053;-65
2021/01/15 04:52:33;;;;;;;14.23;9.60;;;;;;;0.06;85.34;102565.75;5002612;28;20053;-65
2021/01/15 04:54:59;;;;;;;16.88;9.73;;;;;;;0.07;85.22;102564.84;5002303;28;20057;-65
2021/01/15 04:57:31;;;;;;;19.13;10.30;;;;;;;0.08;84.70;102565.72;5003144;28;20075;-65
2021/01/15 05:00:05;;;;;;;18.52;10.23;;;;;;;0.10;84.91;102563.91;5003864;28;20050;-65
2021/01/15 05:02:33;;;;;;;15.00;9.85;;;;;;;0.28;84.69;102565.34;5001017;28;20139;-65
2021/01/15 05:05:01;;;;;;;16.42;9.75;;;;;;;0.24;84.10;102567.19;5002288;28;20061;-65
2021/01/15 05:07:30;;;;;;;17.13;9.85;;;;;;;0.16;84.33;102572.63;5002903;28;20054;-65
2021/01/15 05:09:57;;;;;;;16.13;9.77;;;;;;;0.18;84.03;102569.97;5003765;28;20129;-65
2021/01/15 05:12:29;;;;;;;15.45;9.77;;;;;;;0.19;84.11;102573.47;5002240;28;22253;-65
2021/01/15 05:14:56;;;;;;;12.93;8.63;;;;;;;0.17;83.98;102571.72;5002091;28;20058;-65
2021/01/15 05:17:26;;;;;;;15.25;9.43;;;;;;;0.17;84.29;102576.16;5001728;28;20072;-65
2021/01/15 05:19:55;;;;;;;15.82;8.77;;;;;;;0.15;84.51;102580.59;5003676;28;20050;-65
2021/01/15 05:22:20;;;;;;;20.63;10.63;;;;;;;0.10;84.30;102579.81;5001570;28;20049;-65
2021/01/15 05:24:48;;;;;;;17.40;9.30;;;;;;;0.23;83.32;102591.91;5002259;28;20567;-65
2021/01/15 05:30:13;;;;;;;17.15;10.05;;;;;;;0.21;83.24;102585.78;5001814;28;20047;-65
2021/01/15 05:32:39;;;;;;;17.70;10.65;;;;;;;0.15;83.95;102591.19;5000059;28;20053;-65
2021/01/15 05:35:06;;;;;;;17.05;9.70;;;;;;;0.17;83.85;102590.25;5001483;28;20050;-65
2021/01/15 05:37:33;;;;;;;17.02;9.60;;;;;;;0.27;83.50;102593.63;5002659;28;20064;-65
2021/01/15 05:40:00;;;;;;;19.52;10.20;;;;;;;0.26;83.35;102599.81;5002289;28;20104;-64
2021/01/15 05:42:26;;;;;;;18.50;10.65;;;;;;;0.31;83.03;102608.56;5000788;28;20057;-65
2021/01/15 05:44:52;;;;;;;16.60;10.23;;;;;;;0.30;82.68;102611.25;5001392;28;20042;-65
2021/01/15 05:47:18;;;;;;;17.92;10.88;;;;;;;0.26;83.15;102614.84;5002144;28;20566;-65
2021/01/15 05:49:54;;;;;;;18.60;10.52;;;;;;;0.33;82.52;102609.41;5002703;28;20089;-65
2021/01/15 05:52:20;;;;;;;14.50;9.40;;;;;;;0.32;82.83;102612.06;5001374;28;20155;-65
2021/01/15 05:54:49;;;;;;;14.50;9.48;;;;;;;0.30;82.59;102609.47;5001129;28;20062;-64
2021/01/15 05:57:26;;;;;;;16.23;9.55;;;;;;;0.30;82.09;102609.47;5002018;28;20074;-65
2021/01/15 05:59:52;;;;;;;13.60;8.65;;;;;;;0.29;81.65;102615.66;5002027;28;20050;-64
2021/01/15 06:02:18;;;;;;;13.85;8.52;;;;;;;0.37;81.65;102610.25;5000350;28;20064;-65
2021/01/15 06:04:44;;;;;;;15.98;9.52;;;;;;;0.33;80.98;102611.19;5000830;28;20046;-65
2021/01/15 06:07:18;;;;;;;16.42;9.30;;;;;;;0.32;80.50;102623.56;5001408;28;20085;-64
2021/01/15 06:09:46;;;;;;;14.88;9.27;;;;;;;0.33;81.11;102616.47;5001803;28;20078;-64
2021/01/15 06:12:14;;;;;;;13.07;8.55;;;;;;;0.39;80.23;102619.03;5001059;28;20049;-65
2021/01/15 06:14:49;;;;;;;13.85;8.45;;;;;;;0.49;78.94;102619.75;5001837;28;20082;-65
2021/01/15 06:17:17;;;;;;;13.95;8.38;;;;;;;0.52;78.47;102628.50;5001176;28;20137;-64
2021/01/15 06:19:44;;;;;;;14.18;9.15;;;;;;;0.48;78.66;102620.63;5001843;28;20105;-64
2021/01/15 06:22:26;;;;;;;13.68;9.00;;;;;;;0.45;79.19;102636.59;5000696;28;20058;-65
2021/01/15 06:25:03;;;;;;;14.05;8.50;;;;;;;0.40;78.98;102634.03;4999709;28;20069;-65
2021/01/15 06:27:33;;;;;;;15.73;8.68;;;;;;;0.37;79.94;102639.38;5000458;28;20057;-65
2021/01/15 06:30:03;;;;;;;13.77;8.70;;;;;;;0.30;80.37;102638.59;5001818;28;20042;-65
2021/01/15 06:32:30;;;;;;;13.88;9.48;;;;;;;0.27;81.12;102643.94;4996392;28;20069;-65
2021/01/15 06:34:56;;;;;;;16.42;9.38;;;;;;;0.28;80.90;102639.50;5000544;28;20050;-65
2021/01/15 06:37:22;;;;;;;15.50;9.73;;;;;;;0.36;80.31;102637.63;5001678;28;20471;-65
2021/01/15 06:40:02;;;;;;;13.50;8.85;;;;;;;0.33;80.59;102638.53;5001514;28;20050;-64
2021/01/15 06:42:29;;;;;;;17.02;9.57;;;;;;;0.31;80.93;102643.00;4999094;28;20069;-65
2021/01/15 06:44:55;;;;;;;14.57;8.82;;;;;;;0.31;81.30;102653.59;4998934;28;20129;-65
2021/01/15 06:47:27;;;;;;;15.02;9.55;;;;;;;0.30;81.83;102650.97;5000213;28;20061;-65
2021/01/15 06:49:56;;;;;;;13.60;8.88;;;;;;;0.34;81.92;102661.47;4999756;28;20054;-65
2021/01/15 06:52:26;;;;;;;13.98;9.43;;;;;;;0.28;81.59;102651.00;4999923;28;20054;-65
2021/01/15 06:54:55;;;;;;;18.42;10.23;;;;;;;0.35;82.22;102659.69;4998747;28;20503;-64
2021/01/15 06:57:28;;;;;;;17.02;9.95;;;;;;;0.21;82.77;102665.22;5000633;28;20133;-65
2021/01/15 06:59:59;;;;;;;16.63;9.93;;;;;;;0.19;83.09;102658.22;5002134;28;20058;-65
2021/01/15 07:02:54;;;;;;;16.40;10.02;;;;;;;0.19;83.68;102667.00;4999939;28;20499;-65
2021/01/15 07:05:25;;;;;;;15.98;9.57;;;;;;;0.02;84.48;102674.38;5000616;28;20172;-64
2021/01/15 07:07:53;;;;;;;16.75;9.95;;;;;;;0.08;84.48;102679.56;5001112;28;20057;-64
2021/01/15 07:10:19;;;;;;;14.63;9.75;;;;;;;0.02;85.12;102679.66;4999269;28;20042;-65
2021/01/15 07:12:54;;;;;;;17.17;9.85;;;;;;;0.01;84.50;102678.78;5000887;28;20096;-65
2021/01/15 07:15:22;;;;;;;18.13;10.13;;;;;;;0.01;84.78;102680.56;4998510;28;20051;-65
2021/01/15 07:17:58;;;;;;;19.23;9.80;;;;;;;0.06;85.24;102679.59;4999156;28;20500;-65
2021/01/15 07:20:33;;;;;;;15.75;9.50;;;;;;;0.15;84.49;102675.94;4999282;28;20061;-65
2021/01/15 07:23:00;;;;;;;17.02;10.30;;;;;;;-0.03;85.27;102683.25;5001331;28;20108;-65
2021/01/15 07:25:27;;;;;;;18.02;9.75;;;;;;;-0.13;85.85;102675.44;4999526;28;20112;-65
2021/01/15 07:27:54;;;;;;;17.65;10.57;;;;;;;-0.14;86.37;102690.47;4999925;28;20054;-65
2021/01/15 07:30:24;;;;;;;16.02;9.85;;;;;;;0.16;85.87;102699.75;5000566;28;20069;-65
2021/01/15 07:32:52;;;;;;;17.02;10.00;;;;;;;0.19;85.10;102692.63;5001109;28;20077;-65
2021/01/15 07:35:20;;;;;;;18.17;10.80;;;;;;;0.13;85.26;102698.88;4998052;28;20116;-64
2021/01/15 07:37:46;;;;;;;15.75;10.38;;;;;;;0.18;85.18;102702.34;5001406;28;20132;-65
2021/01/15 07:40:17;;;;;;;16.25;9.85;;;;;;;0.15;85.23;102702.41;4999865;28;20044;-65
2021/01/15 07:42:48;;;;;;;16.88;10.52;;;;;;;0.08;85.77;102700.75;4999277;28;20455;-65
2021/01/15 07:45:46;;;;;;;21.95;10.27;;;;;;;0.04;86.01;102713.13;4998345;28;20468;-64
2021/01/15 07:48:13;;;;;;;17.42;10.13;;;;;;;0.14;86.14;102722.69;4937189;28;20102;-65
2021/01/15 07:50:43;;;;;;;16.08;9.85;;;;;;;0.21;86.20;102718.19;4985140;28;20049;-65
2021/01/15 07:53:17;;;;;;;16.33;10.10;;;;;;;0.24;85.81;102718.16;4998667;28;20514;-65
2021/01/15 07:55:45;;;;;;;21.88;14.05;;;;;;;0.15;86.19;102724.47;4996761;28;20068;-65
2021/01/15 07:58:11;;;;;;;29.27;18.35;;;;;;;0.17;85.47;102732.38;4999631;28;20053;-64
2021/01/15 08:00:38;;;;;;;27.77;18.27;;;;;;;0.22;85.00;102741.16;4999280;28;20049;-64
2021/01/15 08:03:05;;;;;;;22.05;13.63;;;;;;;0.18;84.65;102739.44;4999629;28;20046;-65
2021/01/15 08:05:33;;;;;;;24.65;13.65;;;;;;;0.29;83.41;102736.63;4998161;28;20065;-64
2021/01/15 08:08:09;;;;;;;19.35;13.15;;;;;;;0.23;82.83;102742.00;4999697;28;20509;-64
2021/01/15 08:10:45;;;;;;;17.98;11.60;;;;;;;0.19;82.91;102746.47;5001207;28;20483;-64
2021/01/15 08:13:35;;;;;;;20.05;12.52;;;;;;;0.20;83.07;102745.56;4998570;28;20081;-65
2021/01/15 08:16:05;;;;;;;19.65;11.57;;;;;;;0.20;83.12;102758.81;4999385;28;20054;-64
2021/01/15 08:18:31;;;;;;;19.27;13.45;;;;;;;0.28;82.65;102753.38;5001121;28;20065;-64
2021/01/15 08:20:58;;;;;;;21.77;15.98;;;;;;;0.44;81.07;102761.97;4998462;28;20050;-65
2021/01/15 08:23:26;;;;;;;21.63;15.77;;;;;;;0.33;81.48;102763.03;4998000;28;20049;-65
2021/01/15 08:26:26;;;;;;;22.35;13.75;;;;;;;0.33;81.54;102765.66;4999807;28;20062;-65
2021/01/15 08:28:52;;;;;;;20.08;12.55;;;;;;;0.40;80.88;102770.88;4999757;28;20050;-64
2021/01/15 08:31:21;;;;;;;21.65;13.55;;;;;;;0.37;81.43;102770.91;4992783;28;20077;-65
2021/01/15 08:33:47;;;;;;;23.17;16.75;;;;;;;0.32;81.76;102774.53;4999134;28;20106;-65
2021/01/15 08:36:15;;;;;;;25.45;16.92;;;;;;;0.29;82.30;102782.50;4999115;28;20057;-65
2021/01/15 08:38:41;;;;;;;17.27;12.57;;;;;;;0.42;82.16;102787.63;5000606;28;20042;-65
2021/01/15 08:41:23;;;;;;;18.60;12.40;;;;;;;0.47;82.82;102773.44;4998998;28;20080;-65
2021/01/15 08:43:49;;;;;;;17.17;11.00;;;;;;;0.56;82.78;102783.00;4994543;28;20141;-65
2021/01/15 08:46:17;;;;;;;17.45;11.80;;;;;;;0.60;82.25;102778.53;4996246;28;20546;-65
2021/01/15 08:48:43;;;;;;;21.10;11.40;;;;;;;0.52;82.54;102781.31;4997828;28;20046;-65
2021/01/15 08:51:10;;;;;;;16.45;10.60;;;;;;;0.62;82.69;102787.31;4998868;28;20064;-65
2021/01/15 08:53:43;;;;;;;17.25;10.82;;;;;;;0.60;82.96;102779.38;4999761;28;20061;-65
2021/01/15 08:56:12;;;;;;;18.63;11.52;;;;;;;0.62;82.98;102784.66;4998666;28;20097;-65
2021/01/15 08:58:47;;;;;;;19.60;11.68;;;;;;;0.63;82.44;102789.97;4998890;28;20439;-66
2021/01/15 09:01:27;;;;;;;17.80;10.50;;;;;;;0.69;82.64;102792.50;4993909;28;20120;-66
2021/01/15 09:03:56;;;;;;;19.20;11.30;;;;;;;0.72;82.38;102793.34;4999135;28;20406;-65
2021/01/15 09:06:24;;;;;;;16.55;10.13;;;;;;;0.74;82.62;102794.19;4999391;28;20057;-65
2021/01/15 09:08:54;;;;;;;16.77;10.95;;;;;;;0.76;82.49;102792.41;5002482;28;20140;-65
2021/01/15 09:11:26;;;;;;;16.23;10.27;;;;;;;0.76;82.15;102800.34;5003177;28;20046;-66
2021/01/15 09:13:53;;;;;;;20.48;11.60;;;;;;;0.73;83.10;102795.09;5003441;28;20061;-66
2021/01/15 09:16:21;;;;;;;17.65;11.98;;;;;;;0.58;83.30;102789.16;5003442;28;20050;-65
2021/01/15 09:18:48;;;;;;;18.83;12.45;;;;;;;0.63;83.79;102799.66;5003015;28;20057;-65
2021/01/15 09:21:14;;;;;;;19.02;10.88;;;;;;;0.64;83.51;102807.59;5003091;28;20050;-65
2021/01/15 09:23:40;;;;;;;19.35;11.50;;;;;;;0.80;83.58;102813.53;5004065;28;20042;-66
2021/01/15 09:26:06;;;;;;;18.85;10.73;;;;;;;0.67;83.16;102817.28;5002042;28;20471;-65
2021/01/15 09:28:32;;;;;;;17.92;10.70;;;;;;;0.80;84.01;102820.63;5003693;28;20507;-66
2021/01/15 09:30:58;;;;;;;19.85;11.18;;;;;;;1.03;83.08;102826.41;5002007;28;20069;-65
2021/01/15 09:33:24;;;;;;;17.48;10.05;;;;;;;1.09;82.44;102819.25;5003489;28;20086;-65
2021/01/15 09:35:52;;;;;;;17.65;10.65;;;;;;;1.13;81.88;102824.47;5003383;28;20057;-65
2021/01/15 09:38:18;;;;;;;16.92;10.38;;;;;;;1.14;82.74;102834.19;5001379;28;20190;-66
2021/01/15 09:40:44;;;;;;;17.67;11.18;;;;;;;1.20;81.86;102833.19;5001412;28;20159;-66
2021/01/15 09:43:10;;;;;;;20.40;11.32;;;;;;;1.14;82.40;102834.19;5000192;28;20061;-65
2021/01/15 09:45:36;;;;;;;18.05;11.15;;;;;;;1.16;82.36;102831.50;5000722;28;20045;-65
2021/01/15 09:48:07;;;;;;;18.50;11.40;;;;;;;1.19;82.57;102836.75;5001117;28;20136;-66
2021/01/15 09:50:33;;;;;;;18.13;10.38;;;;;;;1.12;83.06;102837.75;5002701;28;20133;-65
2021/01/15 09:52:58;;;;;;;20.67;11.32;;;;;;;1.18;82.93;102837.66;5002578;28;20042;-65
2021/01/15 10:01:07;;;;;;;20.33;12.00;;;;;;;1.05;83.69;102859.06;5031835;22;20057;-65
2021/01/15 10:03:33;;;;;;;20.45;12.52;;;;;;;1.07;83.44;102868.78;5042177;28;20522;-65
2021/01/15 10:05:59;;;;;;;19.38;10.57;;;;;;;1.02;83.94;102863.56;5038739;28;20048;-66
2021/01/15 10:08:25;;;;;;;18.27;11.10;;;;;;;1.02;83.99;102867.09;5041477;28;20123;-65
2021/01/15 10:10:51;;;;;;;16.85;10.75;;;;;;;0.95;84.32;102864.56;5042725;28;20490;-66
2021/01/15 10:13:17;;;;;;;15.73;10.20;;;;;;;0.98;84.45;102870.69;5041544;28;20506;-64
2021/01/15 10:15:43;;;;;;;16.65;10.52;;;;;;;1.15;84.50;102877.47;5039698;28;20489;-64
2021/01/15 10:18:10;;;;;;;16.70;10.25;;;;;;;1.19;83.76;102876.53;5040633;28;20057;-66
2021/01/15 10:20:36;;;;;;;16.60;10.75;;;;;;;1.19;83.47;102869.47;5042129;28;20111;-66
2021/01/15 10:23:02;;;;;;;16.95;10.90;;;;;;;1.27;84.39;102882.59;5041807;28;20512;-65
2021/01/15 10:25:28;;;;;;;22.42;11.55;;;;;;;1.19;84.39;102890.69;5037811;28;20068;-65
2021/01/15 10:27:53;;;;;;;16.52;10.98;;;;;;;1.13;85.00;102900.50;5040728;28;20402;-64
2021/01/15 10:30:21;;;;;;;17.55;10.88;;;;;;;1.20;84.99;102907.47;5039005;28;20056;-66
2021/01/15 10:32:47;;;;;;;15.90;9.70;;;;;;;1.32;84.75;102904.59;5033736;28;20072;-65
2021/01/15 10:37:43;;;;;;;17.42;10.23;;;;;;;1.08;85.38;102897.06;5021800;23;20104;-65
2021/01/15 10:40:10;;;;;;;16.90;10.48;;;;;;;1.17;86.34;102897.78;4998959;28;20090;-65
2021/01/15 10:42:37;;;;;;;17.20;9.90;;;;;;;0.99;86.99;102898.09;5001457;28;20058;-64
2021/01/15 10:45:05;;;;;;;17.60;10.50;;;;;;;0.93;87.04;102904.38;5001087;28;20498;-65
2021/01/15 10:47:31;;;;;;;20.98;11.23;;;;;;;0.90;88.05;102904.41;5000722;28;20054;-64
2021/01/15 10:49:57;;;;;;;14.90;9.57;;;;;;;0.88;88.44;102906.19;5000843;28;20335;-65
2021/01/15 10:52:23;;;;;;;14.70;9.88;;;;;;;0.98;88.94;102899.84;4999374;28;20384;-65
2021/01/15 10:54:49;;;;;;;17.45;10.43;;;;;;;1.10;88.62;102900.56;5000432;28;20084;-65
2021/01/15 10:57:15;;;;;;;19.02;9.93;;;;;;;1.17;88.39;102902.22;4999517;28;20066;-65
2021/01/15 10:59:42;;;;;;;21.63;10.77;;;;;;;1.09;88.32;102901.44;5000859;28;20491;-65
2021/01/15 11:02:08;;;;;;;17.23;10.75;;;;;;;1.20;88.91;102907.47;4999249;28;20053;-65
2021/01/15 11:04:34;;;;;;;17.77;10.43;;;;;;;1.14;88.03;102900.47;4998759;28;20214;-65
2021/01/15 11:07:01;;;;;;;17.80;11.27;;;;;;;1.10;88.78;102911.16;4997278;28;20105;-65
2021/01/15 11:09:27;;;;;;;18.15;10.85;;;;;;;1.20;88.13;102908.34;4999489;28;20051;-65
2021/01/15 11:11:56;;;;;;;17.70;10.32;;;;;;;1.33;88.43;102901.06;4999970;28;20065;-65
2021/01/15 11:14:22;;;;;;;14.63;9.57;;;;;;;1.37;87.93;102904.53;4999698;28;20165;-65
2021/01/15 11:16:48;;;;;;;18.90;10.45;;;;;;;1.39;87.05;102906.25;5000818;28;20051;-65
2021/01/15 11:19:15;;;;;;;18.33;10.82;;;;;;;1.29;87.08;102903.78;4999244;28;20061;-65
2021/01/15 11:21:41;;;;;;;18.90;10.93;;;;;;;1.32;87.05;102901.94;5001043;28;20053;-65
2021/01/15 11:24:08;;;;;;;19.20;11.35;;;;;;;1.34;87.18;102905.47;4997942;28;20054;-64
2021/01/15 11:26:34;;;;;;;16.42;9.68;;;;;;;1.33;87.25;102901.06;5001011;28;20093;-64
2021/01/15 11:29:03;;;;;;;18.15;10.82;;;;;;;1.37;87.34;102902.75;4993395;28;20109;-65
2021/01/15 11:31:29;;;;;;;19.17;11.10;;;;;;;1.42;88.23;102899.16;4997108;28;20117;-65
2021/01/15 11:33:56;;;;;;;15.43;10.07;;;;;;;1.37;87.64;102905.41;4999787;28;20112;-64
2021/01/15 11:36:22;;;;;;;18.65;10.70;;;;;;;1.51;88.08;102896.34;5004836;28;20053;-65
2021/01/15 11:38:50;;;;;;;16.65;9.85;;;;;;;1.45;87.16;102894.66;5038913;28;20045;-65
2021/01/15 11:41:17;;;;;;;17.15;11.57;;;;;;;1.48;88.01;102896.41;5039221;28;20057;-65
2021/01/15 11:43:44;;;;;;;18.25;11.35;;;;;;;1.61;87.92;102892.63;5035321;28;20110;-64